QFA930 PANC-PACD
Flight info
| Callsign | QFA930 |
|---|---|
| Flight time | 1h 28m |
| Altitude | 36000 |
| Route | ENA J115 CDB |
| Aircraft | B738/M-L/LB1 |
Departure
| Time | 2026-05-09 10:46 |
|---|---|
| Airport | Ted Stevens Anchorage International Airport (PANC) |
Arrival
| Time | 2026-05-09 12:15 |
|---|---|
| Airport | Cold Bay Airport (PACD) |
| Time | Latitude | Longitude | Altitude | Speed | Heading |
|---|---|---|---|---|---|
| 2026-05-09 09:20 | 61.17318 | -149.98424 | 161 ft | 0 kts | 149° |
| 2026-05-09 10:39 | 61.17329 | -149.98438 | 161 ft | 3 kts | 149° |
| 2026-05-09 10:40 | 61.17346 | -149.98458 | 161 ft | 3 kts | 149° |
| 2026-05-09 10:40 | 61.17363 | -149.98479 | 161 ft | 3 kts | 149° |
| 2026-05-09 10:40 | 61.17381 | -149.98500 | 161 ft | 3 kts | 149° |
| 2026-05-09 10:40 | 61.17398 | -149.98522 | 161 ft | 3 kts | 149° |
| 2026-05-09 10:41 | 61.17416 | -149.98544 | 161 ft | 3 kts | 149° |
| 2026-05-09 10:41 | 61.17434 | -149.98566 | 161 ft | 3 kts | 149° |
| 2026-05-09 10:41 | 61.17439 | -149.98571 | 161 ft | 2 kts | 149° |
| 2026-05-09 10:41 | 61.17436 | -149.98568 | 161 ft | 0 kts | 149° |
| 2026-05-09 10:43 | 61.17416 | -149.98562 | 161 ft | 9 kts | 193° |
| 2026-05-09 10:43 | 61.17351 | -149.98646 | 161 ft | 13 kts | 212° |
| 2026-05-09 10:43 | 61.17268 | -149.98755 | 161 ft | 13 kts | 217° |
| 2026-05-09 10:44 | 61.17195 | -149.98893 | 161 ft | 13 kts | 227° |
| 2026-05-09 10:44 | 61.17147 | -149.99010 | 161 ft | 9 kts | 233° |
| 2026-05-09 10:44 | 61.17127 | -149.99116 | 161 ft | 9 kts | 262° |
| 2026-05-09 10:44 | 61.17123 | -149.99254 | 161 ft | 13 kts | 268° |
| 2026-05-09 10:45 | 61.17122 | -149.99448 | 161 ft | 14 kts | 269° |
| 2026-05-09 10:46 | 61.18085 | -150.00402 | 161 ft | 141 kts | 345° |
| 2026-05-09 10:46 | 61.19175 | -150.01032 | 532 ft | 164 kts | 343° |
| 2026-05-09 10:46 | 61.20226 | -150.01763 | 1382 ft | 172 kts | 341° |
| 2026-05-09 10:46 | 61.21407 | -150.02483 | 2156 ft | 181 kts | 351° |
| 2026-05-09 10:47 | 61.22709 | -150.02161 | 2739 ft | 199 kts | 26° |
| 2026-05-09 10:47 | 61.23696 | -150.00137 | 3518 ft | 207 kts | 62° |
| 2026-05-09 10:47 | 61.23928 | -149.97214 | 4342 ft | 211 kts | 98° |
| 2026-05-09 10:47 | 61.23290 | -149.94498 | 5206 ft | 213 kts | 134° |
| 2026-05-09 10:48 | 61.22011 | -149.92995 | 6070 ft | 218 kts | 166° |
| 2026-05-09 10:48 | 61.20526 | -149.93325 | 6905 ft | 220 kts | 197° |
| 2026-05-09 10:48 | 61.19093 | -149.94518 | 7703 ft | 224 kts | 202° |
| 2026-05-09 10:48 | 61.17637 | -149.95730 | 8503 ft | 227 kts | 195° |
| 2026-05-09 10:49 | 61.16072 | -149.95966 | 9246 ft | 231 kts | 179° |
| 2026-05-09 10:49 | 61.14509 | -149.97046 | 9780 ft | 248 kts | 211° |
| 2026-05-09 10:49 | 61.13141 | -149.99417 | 10287 ft | 265 kts | 226° |
| 2026-05-09 10:49 | 61.11865 | -150.02348 | 10763 ft | 283 kts | 226° |
| 2026-05-09 10:50 | 61.10528 | -150.05505 | 11213 ft | 300 kts | 226° |
| 2026-05-09 10:50 | 61.09126 | -150.08872 | 11645 ft | 318 kts | 226° |
| 2026-05-09 10:50 | 61.07643 | -150.12430 | 12089 ft | 335 kts | 226° |
| 2026-05-09 10:50 | 61.06093 | -150.16121 | 12806 ft | 344 kts | 226° |
| 2026-05-09 10:51 | 61.04511 | -150.19868 | 13683 ft | 348 kts | 225° |
| 2026-05-09 10:51 | 61.02913 | -150.23649 | 14598 ft | 351 kts | 225° |
| 2026-05-09 10:51 | 61.01301 | -150.27458 | 15506 ft | 354 kts | 225° |
| 2026-05-09 10:51 | 60.99675 | -150.31293 | 16418 ft | 357 kts | 224° |
| 2026-05-09 10:52 | 60.98032 | -150.35149 | 17315 ft | 359 kts | 224° |
| 2026-05-09 10:52 | 60.96377 | -150.39033 | 18182 ft | 362 kts | 224° |
| 2026-05-09 10:52 | 60.94709 | -150.42944 | 19011 ft | 365 kts | 224° |
| 2026-05-09 10:52 | 60.93030 | -150.46879 | 19802 ft | 368 kts | 224° |
| 2026-05-09 10:53 | 60.91329 | -150.50859 | 20562 ft | 371 kts | 224° |
| 2026-05-09 10:53 | 60.89618 | -150.54854 | 21280 ft | 375 kts | 224° |
| 2026-05-09 10:53 | 60.88012 | -150.58595 | 21933 ft | 378 kts | 224° |
| 2026-05-09 10:53 | 60.86265 | -150.62655 | 22611 ft | 381 kts | 224° |
| 2026-05-09 10:54 | 60.84502 | -150.66741 | 23272 ft | 384 kts | 224° |
| 2026-05-09 10:54 | 60.82725 | -150.70852 | 23933 ft | 387 kts | 224° |
| 2026-05-09 10:54 | 60.80934 | -150.74995 | 24486 ft | 390 kts | 224° |
| 2026-05-09 10:54 | 60.79128 | -150.79165 | 25030 ft | 393 kts | 224° |
| 2026-05-09 10:55 | 60.77306 | -150.83362 | 25537 ft | 396 kts | 224° |
| 2026-05-09 10:55 | 60.75471 | -150.87585 | 26023 ft | 398 kts | 224° |
| 2026-05-09 10:55 | 60.73621 | -150.91833 | 26483 ft | 401 kts | 224° |
| 2026-05-09 10:55 | 60.71758 | -150.96099 | 26938 ft | 404 kts | 224° |
| 2026-05-09 10:56 | 60.69881 | -151.00384 | 27379 ft | 406 kts | 224° |
| 2026-05-09 10:56 | 60.67993 | -151.04692 | 27800 ft | 408 kts | 224° |
| 2026-05-09 10:56 | 60.66093 | -151.09018 | 28206 ft | 410 kts | 224° |
| 2026-05-09 10:56 | 60.64183 | -151.13363 | 28565 ft | 413 kts | 224° |
| 2026-05-09 10:57 | 60.62262 | -151.17734 | 28910 ft | 416 kts | 226° |
| 2026-05-09 10:57 | 60.60574 | -151.22535 | 29326 ft | 420 kts | 234° |
| 2026-05-09 10:57 | 60.59020 | -151.27621 | 29431 ft | 427 kts | 234° |
| 2026-05-09 10:57 | 60.57452 | -151.32787 | 29636 ft | 431 kts | 234° |
| 2026-05-09 10:58 | 60.55883 | -151.37986 | 29929 ft | 432 kts | 234° |
| 2026-05-09 10:58 | 60.54312 | -151.43189 | 30236 ft | 432 kts | 234° |
| 2026-05-09 10:58 | 60.52736 | -151.48380 | 30538 ft | 432 kts | 234° |
| 2026-05-09 10:58 | 60.51152 | -151.53561 | 30833 ft | 432 kts | 234° |
| 2026-05-09 10:59 | 60.49564 | -151.58739 | 31114 ft | 432 kts | 234° |
| 2026-05-09 10:59 | 60.47973 | -151.63920 | 31389 ft | 433 kts | 234° |
| 2026-05-09 10:59 | 60.46381 | -151.69105 | 31651 ft | 433 kts | 235° |
| 2026-05-09 10:59 | 60.44786 | -151.74291 | 31911 ft | 434 kts | 235° |
| 2026-05-09 11:00 | 60.43187 | -151.79474 | 32166 ft | 434 kts | 235° |
| 2026-05-09 11:00 | 60.41584 | -151.84656 | 32416 ft | 435 kts | 235° |
| 2026-05-09 11:00 | 60.39976 | -151.89838 | 32655 ft | 435 kts | 235° |
| 2026-05-09 11:00 | 60.38365 | -151.95022 | 32878 ft | 436 kts | 235° |
| 2026-05-09 11:01 | 60.36754 | -152.00196 | 33119 ft | 436 kts | 235° |
| 2026-05-09 11:01 | 60.35130 | -152.05397 | 33325 ft | 437 kts | 235° |
| 2026-05-09 11:01 | 60.33507 | -152.10588 | 33544 ft | 438 kts | 236° |
| 2026-05-09 11:01 | 60.31882 | -152.15773 | 33743 ft | 438 kts | 236° |
| 2026-05-09 11:02 | 60.30249 | -152.20971 | 33948 ft | 439 kts | 236° |
| 2026-05-09 11:02 | 60.28610 | -152.26171 | 34148 ft | 439 kts | 236° |
| 2026-05-09 11:02 | 60.26971 | -152.31365 | 34400 ft | 439 kts | 236° |
| 2026-05-09 11:02 | 60.25332 | -152.36546 | 34649 ft | 438 kts | 236° |
| 2026-05-09 11:03 | 60.23691 | -152.41715 | 34899 ft | 438 kts | 236° |
| 2026-05-09 11:03 | 60.22053 | -152.46871 | 35148 ft | 437 kts | 236° |
| 2026-05-09 11:03 | 60.20431 | -152.52045 | 35307 ft | 439 kts | 237° |
| 2026-05-09 11:03 | 60.18821 | -152.57280 | 35416 ft | 441 kts | 237° |
| 2026-05-09 11:04 | 60.17211 | -152.62543 | 35541 ft | 443 kts | 237° |
| 2026-05-09 11:04 | 60.13920 | -152.73131 | 35554 ft | 448 kts | 236° |
| 2026-05-09 11:05 | 60.11139 | -152.81978 | 35557 ft | 447 kts | 237° |
| 2026-05-09 11:05 | 60.07842 | -152.92488 | 35558 ft | 444 kts | 237° |
| 2026-05-09 11:06 | 60.04549 | -153.02935 | 35560 ft | 443 kts | 237° |
| 2026-05-09 11:06 | 60.01245 | -153.13348 | 35562 ft | 443 kts | 236° |
| 2026-05-09 11:07 | 59.97936 | -153.23745 | 35563 ft | 443 kts | 237° |
| 2026-05-09 11:07 | 59.94621 | -153.34113 | 35565 ft | 443 kts | 237° |
| 2026-05-09 11:08 | 59.91298 | -153.44458 | 35568 ft | 443 kts | 237° |
| 2026-05-09 11:08 | 59.87965 | -153.54786 | 35570 ft | 443 kts | 237° |
| 2026-05-09 11:09 | 59.84627 | -153.65087 | 35572 ft | 443 kts | 236° |
| 2026-05-09 11:09 | 59.81272 | -153.75393 | 35575 ft | 443 kts | 236° |
| 2026-05-09 11:10 | 59.77913 | -153.85668 | 35577 ft | 443 kts | 236° |
| 2026-05-09 11:10 | 59.74546 | -153.95923 | 35581 ft | 443 kts | 236° |
| 2026-05-09 11:11 | 59.71169 | -154.06158 | 35587 ft | 444 kts | 236° |
| 2026-05-09 11:11 | 59.67786 | -154.16372 | 35589 ft | 444 kts | 236° |
| 2026-05-09 11:12 | 59.64389 | -154.26583 | 35589 ft | 444 kts | 236° |
| 2026-05-09 11:12 | 59.60985 | -154.36768 | 35590 ft | 444 kts | 236° |
| 2026-05-09 11:13 | 59.57574 | -154.46926 | 35591 ft | 444 kts | 236° |
| 2026-05-09 11:13 | 59.54151 | -154.57064 | 35592 ft | 444 kts | 236° |
| 2026-05-09 11:14 | 59.50599 | -154.67031 | 35593 ft | 445 kts | 234° |
| 2026-05-09 11:14 | 59.46984 | -154.76914 | 35594 ft | 445 kts | 235° |
| 2026-05-09 11:15 | 59.43419 | -154.86862 | 35594 ft | 445 kts | 235° |
| 2026-05-09 11:15 | 59.39831 | -154.96776 | 35596 ft | 445 kts | 235° |
| 2026-05-09 11:16 | 59.36225 | -155.06647 | 35598 ft | 446 kts | 235° |
| 2026-05-09 11:16 | 59.32616 | -155.16532 | 35600 ft | 446 kts | 235° |
| 2026-05-09 11:17 | 59.28995 | -155.26400 | 35602 ft | 446 kts | 235° |
| 2026-05-09 11:17 | 59.25361 | -155.36251 | 35603 ft | 447 kts | 235° |
| 2026-05-09 11:18 | 59.21719 | -155.46090 | 35605 ft | 447 kts | 235° |
| 2026-05-09 11:18 | 59.18068 | -155.55911 | 35607 ft | 447 kts | 235° |
| 2026-05-09 11:19 | 59.14389 | -155.65765 | 35607 ft | 446 kts | 235° |
| 2026-05-09 11:19 | 59.10728 | -155.75532 | 35607 ft | 446 kts | 235° |
| 2026-05-09 11:20 | 59.07062 | -155.85271 | 35606 ft | 447 kts | 235° |
| 2026-05-09 11:20 | 59.03379 | -155.95016 | 35606 ft | 447 kts | 235° |
| 2026-05-09 11:21 | 58.99694 | -156.04724 | 35605 ft | 448 kts | 235° |
| 2026-05-09 11:21 | 58.95990 | -156.14443 | 35603 ft | 448 kts | 235° |
| 2026-05-09 11:22 | 58.92278 | -156.24142 | 35599 ft | 448 kts | 235° |
| 2026-05-09 11:22 | 58.88557 | -156.33828 | 35595 ft | 449 kts | 235° |
| 2026-05-09 11:23 | 58.84826 | -156.43497 | 35592 ft | 449 kts | 235° |
| 2026-05-09 11:23 | 58.81087 | -156.53148 | 35589 ft | 449 kts | 235° |
| 2026-05-09 11:24 | 58.77340 | -156.62781 | 35586 ft | 449 kts | 235° |
| 2026-05-09 11:24 | 58.73585 | -156.72384 | 35585 ft | 449 kts | 235° |
| 2026-05-09 11:25 | 58.69410 | -156.81360 | 35586 ft | 451 kts | 228° |
| 2026-05-09 11:25 | 58.65048 | -156.90038 | 35586 ft | 451 kts | 228° |
| 2026-05-09 11:26 | 58.60670 | -156.98685 | 35586 ft | 452 kts | 228° |
| 2026-05-09 11:26 | 58.56296 | -157.07334 | 35588 ft | 452 kts | 228° |
| 2026-05-09 11:27 | 58.51912 | -157.15957 | 35590 ft | 452 kts | 228° |
| 2026-05-09 11:27 | 58.47522 | -157.24551 | 35593 ft | 452 kts | 228° |
| 2026-05-09 11:28 | 58.43124 | -157.33137 | 35596 ft | 452 kts | 228° |
| 2026-05-09 11:28 | 58.38720 | -157.41699 | 35601 ft | 452 kts | 228° |
| 2026-05-09 11:29 | 58.34316 | -157.50228 | 35605 ft | 452 kts | 228° |
| 2026-05-09 11:29 | 58.29900 | -157.58748 | 35610 ft | 452 kts | 228° |
| 2026-05-09 11:30 | 58.25479 | -157.67246 | 35620 ft | 452 kts | 228° |
| 2026-05-09 11:30 | 58.21049 | -157.75730 | 35625 ft | 453 kts | 228° |
| 2026-05-09 11:31 | 58.16613 | -157.84192 | 35628 ft | 452 kts | 228° |
| 2026-05-09 11:31 | 58.12173 | -157.92631 | 35631 ft | 452 kts | 228° |
| 2026-05-09 11:32 | 58.07726 | -158.01051 | 35635 ft | 452 kts | 228° |
| 2026-05-09 11:32 | 58.03273 | -158.09451 | 35636 ft | 452 kts | 228° |
| 2026-05-09 11:33 | 57.98813 | -158.17827 | 35637 ft | 452 kts | 227° |
| 2026-05-09 11:33 | 57.92121 | -158.30345 | 35645 ft | 452 kts | 227° |
| 2026-05-09 11:34 | 57.87645 | -158.38665 | 35648 ft | 452 kts | 227° |
| 2026-05-09 11:34 | 57.83165 | -158.46966 | 35649 ft | 452 kts | 227° |
| 2026-05-09 11:35 | 57.78681 | -158.55245 | 35651 ft | 452 kts | 227° |
| 2026-05-09 11:35 | 57.74192 | -158.63502 | 35654 ft | 452 kts | 227° |
| 2026-05-09 11:36 | 57.69698 | -158.71736 | 35670 ft | 452 kts | 227° |
| 2026-05-09 11:36 | 57.65199 | -158.79951 | 35674 ft | 452 kts | 227° |
| 2026-05-09 11:37 | 57.60671 | -158.88188 | 35677 ft | 451 kts | 227° |
| 2026-05-09 11:37 | 57.56170 | -158.96347 | 35673 ft | 451 kts | 227° |
| 2026-05-09 11:38 | 57.51666 | -159.04481 | 35672 ft | 452 kts | 227° |
| 2026-05-09 11:38 | 57.47150 | -159.12606 | 35681 ft | 452 kts | 227° |
| 2026-05-09 11:39 | 57.42628 | -159.20714 | 35683 ft | 452 kts | 227° |
| 2026-05-09 11:40 | 57.35833 | -159.32842 | 35685 ft | 452 kts | 226° |
| 2026-05-09 11:40 | 57.31295 | -159.40904 | 35686 ft | 452 kts | 226° |
| 2026-05-09 11:41 | 57.26752 | -159.48946 | 35686 ft | 452 kts | 226° |
| 2026-05-09 11:41 | 57.22200 | -159.56975 | 35687 ft | 453 kts | 226° |
| 2026-05-09 11:42 | 57.17642 | -159.64987 | 35687 ft | 452 kts | 226° |
| 2026-05-09 11:42 | 57.13088 | -159.72962 | 35687 ft | 452 kts | 226° |
| 2026-05-09 11:43 | 57.09295 | -159.79584 | 35688 ft | 452 kts | 226° |
| 2026-05-09 11:43 | 57.04728 | -159.87532 | 35688 ft | 452 kts | 226° |
| 2026-05-09 11:44 | 57.00156 | -159.95458 | 35689 ft | 452 kts | 226° |
| 2026-05-09 11:44 | 56.95581 | -160.03363 | 35689 ft | 452 kts | 226° |
| 2026-05-09 11:45 | 56.90993 | -160.11260 | 35684 ft | 453 kts | 226° |
| 2026-05-09 11:45 | 56.86391 | -160.19154 | 35684 ft | 453 kts | 226° |
| 2026-05-09 11:46 | 56.81786 | -160.27021 | 35684 ft | 453 kts | 226° |
| 2026-05-09 11:46 | 56.77183 | -160.34870 | 35685 ft | 453 kts | 226° |
| 2026-05-09 11:47 | 56.72612 | -160.42658 | 35690 ft | 453 kts | 225° |
| 2026-05-09 11:47 | 56.68000 | -160.50474 | 35694 ft | 453 kts | 225° |
| 2026-05-09 11:48 | 56.63382 | -160.58273 | 35701 ft | 453 kts | 225° |
| 2026-05-09 11:48 | 56.58760 | -160.66056 | 35704 ft | 453 kts | 225° |
| 2026-05-09 11:49 | 56.54132 | -160.73819 | 35705 ft | 453 kts | 225° |
| 2026-05-09 11:49 | 56.49505 | -160.81555 | 35706 ft | 453 kts | 225° |
| 2026-05-09 11:50 | 56.44867 | -160.89282 | 35706 ft | 453 kts | 225° |
| 2026-05-09 11:50 | 56.42540 | -160.93150 | 35243 ft | 454 kts | 225° |
| 2026-05-09 11:50 | 56.40255 | -160.96938 | 34654 ft | 450 kts | 225° |
| 2026-05-09 11:50 | 56.37961 | -161.00735 | 34084 ft | 445 kts | 225° |
| 2026-05-09 11:51 | 56.35689 | -161.04489 | 33526 ft | 441 kts | 225° |
| 2026-05-09 11:51 | 56.33438 | -161.08204 | 32975 ft | 437 kts | 225° |
| 2026-05-09 11:51 | 56.31207 | -161.11882 | 32430 ft | 433 kts | 225° |
| 2026-05-09 11:51 | 56.28977 | -161.15553 | 31889 ft | 441 kts | 225° |
| 2026-05-09 11:52 | 56.26694 | -161.19309 | 31328 ft | 443 kts | 225° |
| 2026-05-09 11:52 | 56.24429 | -161.23019 | 30775 ft | 438 kts | 225° |
| 2026-05-09 11:52 | 56.22189 | -161.26676 | 30229 ft | 433 kts | 225° |
| 2026-05-09 11:52 | 56.19973 | -161.30295 | 29688 ft | 429 kts | 225° |
| 2026-05-09 11:53 | 56.17778 | -161.33878 | 29153 ft | 426 kts | 224° |
| 2026-05-09 11:53 | 56.15594 | -161.37439 | 28620 ft | 422 kts | 224° |
| 2026-05-09 11:53 | 56.13425 | -161.40966 | 28092 ft | 419 kts | 224° |
| 2026-05-09 11:53 | 56.11237 | -161.44518 | 27558 ft | 416 kts | 224° |
| 2026-05-09 11:54 | 56.09130 | -161.47933 | 27045 ft | 413 kts | 224° |
| 2026-05-09 11:54 | 56.07005 | -161.51372 | 26528 ft | 410 kts | 224° |
| 2026-05-09 11:54 | 56.04866 | -161.54828 | 26008 ft | 407 kts | 224° |
| 2026-05-09 11:54 | 56.02770 | -161.58210 | 25499 ft | 404 kts | 224° |
| 2026-05-09 11:55 | 56.00687 | -161.61565 | 24992 ft | 401 kts | 224° |
| 2026-05-09 11:56 | 55.90465 | -161.77961 | 22441 ft | 391 kts | 223° |
| 2026-05-09 11:56 | 55.88441 | -161.81193 | 21917 ft | 390 kts | 223° |
| 2026-05-09 11:56 | 55.86423 | -161.84409 | 21392 ft | 388 kts | 223° |
| 2026-05-09 11:57 | 55.84416 | -161.87603 | 20867 ft | 386 kts | 223° |
| 2026-05-09 11:57 | 55.82419 | -161.90774 | 20342 ft | 384 kts | 224° |
| 2026-05-09 11:57 | 55.80433 | -161.93926 | 19817 ft | 381 kts | 224° |
| 2026-05-09 11:57 | 55.78305 | -161.96726 | 19281 ft | 382 kts | 211° |
| 2026-05-09 11:58 | 55.75852 | -161.98499 | 18749 ft | 382 kts | 196° |
| 2026-05-09 11:58 | 55.73232 | -161.99080 | 18217 ft | 381 kts | 180° |
| 2026-05-09 11:58 | 55.70598 | -161.98660 | 17696 ft | 379 kts | 174° |
| 2026-05-09 11:58 | 55.67988 | -161.98105 | 17171 ft | 376 kts | 174° |
| 2026-05-09 11:59 | 55.65400 | -161.97523 | 16646 ft | 374 kts | 173° |
| 2026-05-09 11:59 | 55.62830 | -161.96955 | 16122 ft | 371 kts | 174° |
| 2026-05-09 11:59 | 55.60280 | -161.96415 | 15597 ft | 368 kts | 174° |
| 2026-05-09 11:59 | 55.57749 | -161.95892 | 15072 ft | 365 kts | 174° |
| 2026-05-09 12:00 | 55.55242 | -161.95373 | 14580 ft | 360 kts | 174° |
| 2026-05-09 12:00 | 55.52813 | -161.94864 | 14247 ft | 352 kts | 174° |
| 2026-05-09 12:00 | 55.50402 | -161.94355 | 13945 ft | 346 kts | 174° |
| 2026-05-09 12:00 | 55.48020 | -161.93853 | 13644 ft | 343 kts | 174° |
| 2026-05-09 12:01 | 55.45662 | -161.93358 | 13390 ft | 339 kts | 174° |
| 2026-05-09 12:01 | 55.43316 | -161.92869 | 13145 ft | 345 kts | 174° |
| 2026-05-09 12:01 | 55.40930 | -161.92372 | 12893 ft | 343 kts | 174° |
| 2026-05-09 12:01 | 55.38581 | -161.91882 | 12617 ft | 339 kts | 174° |
| 2026-05-09 12:02 | 55.36264 | -161.91398 | 12268 ft | 331 kts | 174° |
| 2026-05-09 12:02 | 55.34005 | -161.90927 | 11913 ft | 323 kts | 174° |
| 2026-05-09 12:02 | 55.31798 | -161.90608 | 11540 ft | 314 kts | 186° |
| 2026-05-09 12:02 | 55.29800 | -161.91831 | 11196 ft | 301 kts | 216° |
| 2026-05-09 12:03 | 55.28132 | -161.93975 | 10845 ft | 294 kts | 220° |
| 2026-05-09 12:03 | 55.26566 | -161.96222 | 10493 ft | 288 kts | 222° |
| 2026-05-09 12:03 | 55.25060 | -161.98453 | 10151 ft | 286 kts | 222° |
| 2026-05-09 12:03 | 55.23538 | -162.00662 | 9910 ft | 284 kts | 221° |
| 2026-05-09 12:04 | 55.21999 | -162.02840 | 9655 ft | 285 kts | 220° |
| 2026-05-09 12:04 | 55.20450 | -162.05002 | 9403 ft | 284 kts | 220° |
| 2026-05-09 12:04 | 55.18909 | -162.07153 | 9151 ft | 283 kts | 220° |
| 2026-05-09 12:04 | 55.17378 | -162.09300 | 8897 ft | 282 kts | 221° |
| 2026-05-09 12:05 | 55.15855 | -162.11441 | 8646 ft | 280 kts | 221° |
| 2026-05-09 12:05 | 55.14339 | -162.13570 | 8395 ft | 279 kts | 221° |
| 2026-05-09 12:05 | 55.12830 | -162.15685 | 8148 ft | 276 kts | 220° |
| 2026-05-09 12:05 | 55.11332 | -162.17781 | 7771 ft | 276 kts | 220° |
| 2026-05-09 12:06 | 55.09841 | -162.19865 | 7334 ft | 274 kts | 220° |
| 2026-05-09 12:06 | 55.08354 | -162.21940 | 6902 ft | 273 kts | 220° |
| 2026-05-09 12:06 | 55.06877 | -162.23999 | 6477 ft | 271 kts | 220° |
| 2026-05-09 12:06 | 55.05430 | -162.26015 | 6061 ft | 269 kts | 220° |
| 2026-05-09 12:07 | 55.03974 | -162.28044 | 5637 ft | 267 kts | 220° |
| 2026-05-09 12:07 | 55.02800 | -162.30474 | 5124 ft | 263 kts | 248° |
| 2026-05-09 12:07 | 55.02347 | -162.33524 | 4717 ft | 259 kts | 261° |
| 2026-05-09 12:07 | 55.01999 | -162.36580 | 4319 ft | 256 kts | 261° |
| 2026-05-09 12:08 | 55.01645 | -162.39613 | 4005 ft | 256 kts | 260° |
| 2026-05-09 12:08 | 55.01285 | -162.42687 | 3978 ft | 260 kts | 260° |
| 2026-05-09 12:08 | 55.00924 | -162.45766 | 3971 ft | 259 kts | 260° |
| 2026-05-09 12:08 | 55.00567 | -162.48822 | 3970 ft | 256 kts | 260° |
| 2026-05-09 12:09 | 55.00220 | -162.51796 | 3969 ft | 242 kts | 261° |
| 2026-05-09 12:09 | 54.99895 | -162.54569 | 3966 ft | 226 kts | 261° |
| 2026-05-09 12:09 | 54.99790 | -162.57169 | 3940 ft | 206 kts | 286° |
| 2026-05-09 12:10 | 55.02885 | -162.60626 | 3754 ft | 165 kts | 342° |
| 2026-05-09 12:10 | 55.03963 | -162.61243 | 3533 ft | 162 kts | 341° |
| 2026-05-09 12:10 | 55.05011 | -162.61907 | 3230 ft | 159 kts | 340° |
| 2026-05-09 12:11 | 55.06035 | -162.62592 | 2791 ft | 157 kts | 339° |
| 2026-05-09 12:11 | 55.07050 | -162.63285 | 2423 ft | 157 kts | 339° |
| 2026-05-09 12:11 | 55.08071 | -162.63987 | 2399 ft | 158 kts | 338° |
| 2026-05-09 12:11 | 55.09090 | -162.64689 | 2394 ft | 157 kts | 338° |
| 2026-05-09 12:12 | 55.10109 | -162.65393 | 2391 ft | 157 kts | 338° |
| 2026-05-09 12:12 | 55.11126 | -162.66112 | 2356 ft | 159 kts | 337° |
| 2026-05-09 12:12 | 55.12144 | -162.66872 | 2171 ft | 159 kts | 337° |
| 2026-05-09 12:12 | 55.13168 | -162.67619 | 1878 ft | 156 kts | 338° |
| 2026-05-09 12:13 | 55.14139 | -162.68293 | 1693 ft | 148 kts | 338° |
| 2026-05-09 12:13 | 55.15081 | -162.68899 | 1435 ft | 140 kts | 338° |
| 2026-05-09 12:13 | 55.15962 | -162.69491 | 1158 ft | 132 kts | 337° |
| 2026-05-09 12:13 | 55.16799 | -162.70056 | 832 ft | 124 kts | 338° |
| 2026-05-09 12:14 | 55.17619 | -162.70606 | 604 ft | 132 kts | 337° |
| 2026-05-09 12:14 | 55.18452 | -162.71177 | 406 ft | 127 kts | 337° |
| 2026-05-09 12:14 | 55.19258 | -162.71731 | 158 ft | 122 kts | 338° |
| 2026-05-09 12:14 | 55.19957 | -162.72209 | 107 ft | 76 kts | 337° |
| 2026-05-09 12:15 | 55.20190 | -162.72350 | 107 ft | 11 kts | 34° |
| 2026-05-09 12:15 | 55.20153 | -162.72247 | 107 ft | 11 kts | 117° |
| 2026-05-09 12:15 | 55.20162 | -162.72148 | 107 ft | 4 kts | 68° |
| 2026-05-09 12:15 | 55.20165 | -162.72137 | 107 ft | 0 kts | 67° |
| 2026-05-09 12:16 | 55.20170 | -162.72115 | 107 ft | 4 kts | 64° |
| 2026-05-09 12:16 | 55.20158 | -162.72043 | 107 ft | 9 kts | 129° |
| 2026-05-09 12:16 | 55.20141 | -162.71964 | 107 ft | 3 kts | 67° |
| 2026-05-09 12:17 | 55.20142 | -162.71962 | 107 ft | 0 kts | 66° |